»·PEaware :: N211AA KCRQ-KSNA

N211AA :: KCRQ-KSNA

FLIGHT INFORMATION

Flight Status: Arrived
Operator: Privately registered:
United States
More flights under this callsign
Pilot: Abraham A. (10052)
Aircraft: CESSNA 172 SKYHAWK
(C172)
More flights by this aircraft type
Origin: KCRQ McClellan-Palomar
United States
Destination: KSNA John Wayne-Orange Co
United States
More flights between these airports :: More routes between these airports
Route: OCN V23 SLI
File this flight plan on PilotEdge
Remarks: NO SIDS NO STARS
Altitude:
(Current/Filed)
6,000ft
Speed:
(Current/Filed)
110kts
Departed: 21-May-16 05:05 PM
Arrived: 21-May-16 05:50 PM
Distance/Time
Traveled:
44nm/0:45
Distance/Time
To Go:
Arrived

Flight Plot

Page will automatically refresh every two minutes.


Map Options




Map Legend


Flown Route
Filed Route
Departure Airport
Arrival Airport
Navaid (VOR, NDB)
Fix

Horizontal Profiles

Position Reports

Time Latitude Longitude Heading Altitude Ground
Speed
21-May-16 16:20 33.125753 -117.282281 259 334ft 0kts
21-May-16 16:21 33.125753 -117.282282 259 334ft 0kts
21-May-16 16:22 33.125752 -117.282287 259 334ft 0kts
21-May-16 16:23 33.125751 -117.282292 259 334ft 0kts
21-May-16 16:24 33.125751 -117.282297 259 334ft 0kts
21-May-16 16:25 33.125750 -117.282302 259 334ft 0kts
21-May-16 16:26 33.125749 -117.282307 259 334ft 0kts
21-May-16 16:27 33.125748 -117.282312 259 334ft 0kts
21-May-16 16:28 33.125748 -117.282316 259 334ft 0kts
21-May-16 16:29 33.125747 -117.282321 259 334ft 0kts
21-May-16 16:30 33.125746 -117.282326 259 334ft 0kts
21-May-16 16:31 33.125746 -117.282331 259 334ft 0kts
21-May-16 16:32 33.125745 -117.282336 259 334ft 0kts
21-May-16 16:34 33.125744 -117.282340 259 334ft 0kts
21-May-16 16:35 33.125744 -117.282341 259 334ft 0kts
21-May-16 16:36 33.125743 -117.282346 259 334ft 0kts
21-May-16 16:37 33.125743 -117.282351 259 334ft 0kts
21-May-16 16:38 33.125742 -117.282355 259 334ft 0kts
21-May-16 16:39 33.125741 -117.282360 259 334ft 0kts
21-May-16 16:41 33.125740 -117.282368 259 334ft 0kts
21-May-16 16:42 33.125739 -117.282372 259 334ft 0kts
21-May-16 16:43 33.125739 -117.282372 259 334ft 0kts
21-May-16 16:44 33.125739 -117.282372 259 334ft 0kts
21-May-16 16:50 33.125739 -117.282376 259 334ft 0kts
21-May-16 16:51 33.125738 -117.282381 259 334ft 0kts
21-May-16 16:52 33.125737 -117.282386 259 334ft 0kts
21-May-16 16:53 33.125736 -117.282391 259 334ft 0kts
21-May-16 16:54 33.125736 -117.282395 259 334ft 0kts
21-May-16 16:55 33.125735 -117.282400 259 334ft 0kts
21-May-16 16:56 33.126448 -117.282300 8 334ft 6kts
21-May-16 16:57 33.127599 -117.277591 79 334ft 24kts
21-May-16 16:58 33.128181 -117.272975 274 334ft 0kts
21-May-16 16:59 33.128182 -117.272987 274 334ft 0kts
21-May-16 17:00 33.128183 -117.272998 274 334ft 0kts
21-May-16 17:01 33.128450 -117.272385 49 334ft 6kts
21-May-16 17:02 33.128725 -117.272321 359 334ft 0kts
21-May-16 17:03 33.128519 -117.278268 254 399ft 65kts
21-May-16 17:04 33.125774 -117.298966 262 1336ft 59kts
21-May-16 17:05 33.124765 -117.322632 264 2129ft 64kts
21-May-16 17:06 33.139934 -117.337008 322 2846ft 80kts
21-May-16 17:07 33.158370 -117.352300 315 3554ft 82kts
21-May-16 17:08 33.177238 -117.367439 318 4268ft 81kts
21-May-16 17:09 33.196565 -117.382712 317 4906ft 86kts
21-May-16 17:10 33.216686 -117.398733 319 5515ft 87kts
21-May-16 17:11 33.237470 -117.415023 320 5981ft 100kts
21-May-16 17:12 33.259213 -117.438957 310 5995ft 106kts
21-May-16 17:13 33.280354 -117.463557 311 5999ft 106kts
21-May-16 17:14 33.301566 -117.488238 311 5999ft 106kts
21-May-16 17:15 33.322781 -117.512982 311 5999ft 106kts
21-May-16 17:16 33.344031 -117.537789 311 5998ft 106kts
21-May-16 17:17 33.365331 -117.562651 311 5997ft 106kts
21-May-16 17:18 33.386653 -117.587549 311 5995ft 107kts
21-May-16 17:19 33.407869 -117.612367 311 6002ft 107kts
21-May-16 17:20 33.429284 -117.637423 312 5999ft 107kts
21-May-16 17:21 33.450687 -117.662481 312 5997ft 107kts
21-May-16 17:22 33.474059 -117.689438 312 5374ft 122kts
21-May-16 17:23 33.497554 -117.716327 312 5038ft 111kts
21-May-16 17:24 33.520225 -117.742618 313 5106ft 122kts
21-May-16 17:25 33.542523 -117.770206 312 5037ft 109kts
21-May-16 17:26 33.563908 -117.797329 310 5069ft 121kts
21-May-16 17:27 33.587158 -117.824042 315 4982ft 109kts
21-May-16 17:28 33.610199 -117.848461 315 5128ft 112kts
21-May-16 17:29 33.635217 -117.875091 313 5067ft 118kts
21-May-16 17:30 33.657847 -117.903814 307 5037ft 118kts
21-May-16 17:31 33.678389 -117.931883 313 4975ft 107kts
21-May-16 17:32 33.701303 -117.953975 342 4999ft 109kts
21-May-16 17:33 33.732808 -117.947131 11 5162ft 117kts
21-May-16 17:34 33.764973 -117.937927 12 4918ft 109kts
21-May-16 17:35 33.794009 -117.928342 12 4279ft 108kts
21-May-16 17:36 33.818070 -117.906541 50 3450ft 111kts
21-May-16 17:37 33.838832 -117.876152 50 3017ft 118kts
21-May-16 17:38 33.857026 -117.844617 77 2997ft 113kts
21-May-16 17:39 33.862843 -117.805588 81 3031ft 119kts
21-May-16 17:40 33.858132 -117.771396 170 3004ft 106kts
21-May-16 17:41 33.828641 -117.775498 207 3042ft 109kts
21-May-16 17:42 33.800578 -117.790435 205 2687ft 103kts
21-May-16 17:43 33.777769 -117.804221 206 2186ft 82kts
21-May-16 17:44 33.755251 -117.818407 212 1750ft 97kts
21-May-16 17:45 33.733736 -117.831577 211 1197ft 80kts
21-May-16 17:46 33.714107 -117.844783 209 787ft 81kts
21-May-16 17:47 33.693986 -117.857307 207 408ft 72kts
21-May-16 17:48 33.680075 -117.866030 213 71ft 40kts
21-May-16 17:49 33.677791 -117.866684 116 59ft 2kts
21-May-16 17:50 33.676944 -117.865299 208 59ft 9kts
21-May-16 17:51 33.674002 -117.867032 192 59ft 8kts
21-May-16 17:52 33.671751 -117.868617 224 59ft 14kts
21-May-16 17:53 33.670109 -117.868045 200 59ft 5kts
21-May-16 17:54 33.670043 -117.868531 322 59ft 0kts

Navigation Log

Ident Type
Flight plan parsing failed, navigation log unavailable